sensor_id;sensor_type;location;lat;lon;timestamp;pressure;altitude;pressure_sealevel;temperature;humidity
63903;BME280;50072;50.678;13.938;2023-04-21T00:01:14;99676.25;;;8.20;86.41
63903;BME280;50072;50.678;13.938;2023-04-21T00:03:42;99681.53;;;8.23;86.13
63903;BME280;50072;50.678;13.938;2023-04-21T00:06:15;99667.38;;;8.18;85.63
63903;BME280;50072;50.678;13.938;2023-04-21T00:08:49;99669.16;;;8.19;85.87
63903;BME280;50072;50.678;13.938;2023-04-21T00:11:15;99669.13;;;8.20;85.75
63903;BME280;50072;50.678;13.938;2023-04-21T00:13:42;99667.44;;;8.15;85.77
63903;BME280;50072;50.678;13.938;2023-04-21T00:16:15;99665.66;;;8.13;86.17
63903;BME280;50072;50.678;13.938;2023-04-21T00:18:42;99660.34;;;8.12;86.34
63903;BME280;50072;50.678;13.938;2023-04-21T00:21:08;99651.44;;;8.15;85.68
63903;BME280;50072;50.678;13.938;2023-04-21T00:23:45;99655.94;;;8.11;86.14
63903;BME280;50072;50.678;13.938;2023-04-21T00:26:15;99655.03;;;8.10;85.96
63903;BME280;50072;50.678;13.938;2023-04-21T00:28:45;99654.16;;;8.11;86.25
63903;BME280;50072;50.678;13.938;2023-04-21T00:31:15;99648.88;;;8.08;86.55
63903;BME280;50072;50.678;13.938;2023-04-21T00:33:46;99649.78;;;8.07;86.45
63903;BME280;50072;50.678;13.938;2023-04-21T00:36:15;99649.81;;;8.04;86.86
63903;BME280;50072;50.678;13.938;2023-04-21T00:38:45;99646.22;;;8.08;86.64
63903;BME280;50072;50.678;13.938;2023-04-21T00:41:15;99651.50;;;8.10;86.23
63903;BME280;50072;50.678;13.938;2023-04-21T00:44:07;99647.97;;;8.09;85.99
63903;BME280;50072;50.678;13.938;2023-04-21T00:46:45;99639.13;;;8.06;85.90
63903;BME280;50072;50.678;13.938;2023-04-21T00:49:18;99645.38;;;8.03;86.27
63903;BME280;50072;50.678;13.938;2023-04-21T00:51:45;99638.34;;;7.99;86.52
63903;BME280;50072;50.678;13.938;2023-04-21T00:54:16;99633.06;;;7.96;86.05
63903;BME280;50072;50.678;13.938;2023-04-21T00:56:45;99633.13;;;7.93;85.81
63903;BME280;50072;50.678;13.938;2023-04-21T00:59:11;99633.13;;;7.91;86.03
63903;BME280;50072;50.678;13.938;2023-04-21T01:01:43;99634.91;;;7.92;85.94
63903;BME280;50072;50.678;13.938;2023-04-21T01:04:15;99635.81;;;7.90;85.88
63903;BME280;50072;50.678;13.938;2023-04-21T01:06:43;99646.47;;;7.90;85.41
63903;BME280;50072;50.678;13.938;2023-04-21T01:09:15;99636.69;;;7.90;85.45
63903;BME280;50072;50.678;13.938;2023-04-21T01:14:38;99646.56;;;7.84;85.44
63903;BME280;50072;50.678;13.938;2023-04-21T01:17:15;99649.34;;;7.76;86.14
63903;BME280;50072;50.678;13.938;2023-04-21T01:19:45;99643.19;;;7.69;86.48
63903;BME280;50072;50.678;13.938;2023-04-21T01:22:13;99637.88;;;7.69;86.62
63903;BME280;50072;50.678;13.938;2023-04-21T01:24:46;99635.31;;;7.63;86.55
63903;BME280;50072;50.678;13.938;2023-04-21T01:27:17;99628.38;;;7.51;86.80
63903;BME280;50072;50.678;13.938;2023-04-21T01:29:48;99634.66;;;7.46;87.43
63903;BME280;50072;50.678;13.938;2023-04-21T01:32:20;99635.63;;;7.40;87.71
63903;BME280;50072;50.678;13.938;2023-04-21T01:34:58;99633.03;;;7.32;87.41
63903;BME280;50072;50.678;13.938;2023-04-21T01:37:27;99619.03;;;7.16;88.62
63903;BME280;50072;50.678;13.938;2023-04-21T01:40:03;99631.50;;;7.13;89.94
63903;BME280;50072;50.678;13.938;2023-04-21T01:42:31;99630.69;;;7.07;90.10
63903;BME280;50072;50.678;13.938;2023-04-21T01:45:12;99625.53;;;6.92;91.90
63903;BME280;50072;50.678;13.938;2023-04-21T01:47:44;99623.88;;;6.82;93.15
63903;BME280;50072;50.678;13.938;2023-04-21T01:50:15;99631.91;;;6.76;94.23
63903;BME280;50072;50.678;13.938;2023-04-21T01:52:45;99628.44;;;6.67;94.42
63903;BME280;50072;50.678;13.938;2023-04-21T01:55:12;99625.88;;;6.56;94.83
63903;BME280;50072;50.678;13.938;2023-04-21T01:57:45;99625.94;;;6.52;95.15
63903;BME280;50072;50.678;13.938;2023-04-21T02:00:15;99628.59;;;6.52;95.40
63903;BME280;50072;50.678;13.938;2023-04-21T02:02:45;99620.69;;;6.43;96.17
63903;BME280;50072;50.678;13.938;2023-04-21T02:05:12;99628.66;;;6.46;96.83
63903;BME280;50072;50.678;13.938;2023-04-21T02:07:45;99630.53;;;6.34;96.89
63903;BME280;50072;50.678;13.938;2023-04-21T02:10:16;99628.81;;;6.24;97.03
63903;BME280;50072;50.678;13.938;2023-04-21T02:12:45;99632.47;;;6.09;97.06
63903;BME280;50072;50.678;13.938;2023-04-21T02:15:15;99620.19;;;5.97;97.50
63903;BME280;50072;50.678;13.938;2023-04-21T02:17:45;99621.94;;;6.01;97.04
63903;BME280;50072;50.678;13.938;2023-04-21T02:20:13;99619.25;;;6.00;97.38
63903;BME280;50072;50.678;13.938;2023-04-21T02:22:45;99619.28;;;5.94;97.79
63903;BME280;50072;50.678;13.938;2023-04-21T02:25:15;99614.88;;;5.88;98.44
63903;BME280;50072;50.678;13.938;2023-04-21T02:27:48;99614.03;;;5.81;99.04
63903;BME280;50072;50.678;13.938;2023-04-21T02:30:15;99614.06;;;5.77;99.63
63903;BME280;50072;50.678;13.938;2023-04-21T02:32:47;99624.75;;;5.69;99.47
63903;BME280;50072;50.678;13.938;2023-04-21T02:35:15;99609.72;;;5.65;99.06
63903;BME280;50072;50.678;13.938;2023-04-21T02:37:41;99613.25;;;5.65;98.86
63903;BME280;50072;50.678;13.938;2023-04-21T02:40:15;99616.81;;;5.63;99.08
63903;BME280;50072;50.678;13.938;2023-04-21T02:42:43;99608.84;;;5.63;99.30
63903;BME280;50072;50.678;13.938;2023-04-21T02:45:15;99617.72;;;5.62;99.93
63903;BME280;50072;50.678;13.938;2023-04-21T02:47:46;99608.00;;;5.56;100.00
63903;BME280;50072;50.678;13.938;2023-04-21T02:50:15;99606.25;;;5.55;100.00
63903;BME280;50072;50.678;13.938;2023-04-21T02:52:42;99615.97;;;5.56;100.00
63903;BME280;50072;50.678;13.938;2023-04-21T02:55:15;99609.75;;;5.57;100.00
63903;BME280;50072;50.678;13.938;2023-04-21T02:57:45;99610.63;;;5.61;100.00
63903;BME280;50072;50.678;13.938;2023-04-21T03:00:16;99620.31;;;5.69;100.00
63903;BME280;50072;50.678;13.938;2023-04-21T03:02:43;99622.06;;;5.72;100.00
63903;BME280;50072;50.678;13.938;2023-04-21T03:05:11;99616.72;;;5.77;100.00
63903;BME280;50072;50.678;13.938;2023-04-21T03:07:46;99616.78;;;5.70;100.00
63903;BME280;50072;50.678;13.938;2023-04-21T03:10:11;99615.03;;;5.65;100.00
63903;BME280;50072;50.678;13.938;2023-04-21T03:12:44;99616.81;;;5.61;98.49
63903;BME280;50072;50.678;13.938;2023-04-21T03:15:15;99617.75;;;5.54;98.45
63903;BME280;50072;50.678;13.938;2023-04-21T03:17:47;99609.84;;;5.45;97.93
63903;BME280;50072;50.678;13.938;2023-04-21T03:20:14;99608.13;;;5.31;98.68
63903;BME280;50072;50.678;13.938;2023-04-21T03:22:46;99609.94;;;5.26;99.05
63903;BME280;50072;50.678;13.938;2023-04-21T03:25:12;99617.94;;;5.14;99.51
63903;BME280;50072;50.678;13.938;2023-04-21T03:27:38;99613.53;;;5.07;99.49
63903;BME280;50072;50.678;13.938;2023-04-21T03:30:16;99618.00;;;4.94;100.00
63903;BME280;50072;50.678;13.938;2023-04-21T03:32:47;99624.19;;;4.93;99.77
63903;BME280;50072;50.678;13.938;2023-04-21T03:35:15;99614.47;;;4.87;100.00
63903;BME280;50072;50.678;13.938;2023-04-21T03:37:41;99622.47;;;4.78;100.00
63903;BME280;50072;50.678;13.938;2023-04-21T03:40:12;99626.88;;;4.74;100.00
63903;BME280;50072;50.678;13.938;2023-04-21T03:42:45;99622.50;;;4.65;100.00
63903;BME280;50072;50.678;13.938;2023-04-21T03:45:14;99627.78;;;4.69;100.00
63903;BME280;50072;50.678;13.938;2023-04-21T03:47:40;99624.28;;;4.63;100.00
63903;BME280;50072;50.678;13.938;2023-04-21T03:50:06;99620.72;;;4.58;100.00
63903;BME280;50072;50.678;13.938;2023-04-21T03:52:32;99617.19;;;4.53;100.00
63903;BME280;50072;50.678;13.938;2023-04-21T03:54:58;99615.44;;;4.47;100.00
63903;BME280;50072;50.678;13.938;2023-04-21T03:57:33;99616.31;;;4.59;100.00
63903;BME280;50072;50.678;13.938;2023-04-21T03:59:58;99615.41;;;4.63;100.00
63903;BME280;50072;50.678;13.938;2023-04-21T04:02:24;99617.22;;;4.59;100.00
63903;BME280;50072;50.678;13.938;2023-04-21T04:04:50;99621.59;;;4.59;100.00
63903;BME280;50072;50.678;13.938;2023-04-21T04:07:16;99620.75;;;4.52;100.00
63903;BME280;50072;50.678;13.938;2023-04-21T04:09:42;99624.28;;;4.48;100.00
63903;BME280;50072;50.678;13.938;2023-04-21T04:12:08;99628.72;;;4.49;100.00
63903;BME280;50072;50.678;13.938;2023-04-21T04:14:34;99627.81;;;4.44;100.00
63903;BME280;50072;50.678;13.938;2023-04-21T04:17:00;99629.59;;;4.36;100.00
63903;BME280;50072;50.678;13.938;2023-04-21T04:19:29;99636.66;;;4.40;100.00
63903;BME280;50072;50.678;13.938;2023-04-21T04:21:59;99634.03;;;4.32;100.00
63903;BME280;50072;50.678;13.938;2023-04-21T04:24:26;99635.78;;;4.25;100.00
63903;BME280;50072;50.678;13.938;2023-04-21T04:26:52;99638.41;;;4.30;100.00
63903;BME280;50072;50.678;13.938;2023-04-21T04:29:20;99636.69;;;4.32;100.00
63903;BME280;50072;50.678;13.938;2023-04-21T04:31:50;99636.66;;;4.37;100.00
63903;BME280;50072;50.678;13.938;2023-04-21T04:34:16;99640.19;;;4.28;100.00
63903;BME280;50072;50.678;13.938;2023-04-21T04:36:43;99641.97;;;4.30;100.00
63903;BME280;50072;50.678;13.938;2023-04-21T04:39:08;99641.97;;;4.40;100.00
63903;BME280;50072;50.678;13.938;2023-04-21T04:41:35;99640.19;;;4.32;100.00
63903;BME280;50072;50.678;13.938;2023-04-21T04:44:02;99641.97;;;4.38;100.00
63903;BME280;50072;50.678;13.938;2023-04-21T04:46:30;99638.44;;;4.38;100.00
63903;BME280;50072;50.678;13.938;2023-04-21T04:48:56;99644.59;;;4.52;100.00
63903;BME280;50072;50.678;13.938;2023-04-21T04:51:22;99635.78;;;4.56;100.00
63903;BME280;50072;50.678;13.938;2023-04-21T04:53:48;99633.09;;;4.65;100.00
63903;BME280;50072;50.678;13.938;2023-04-21T04:56:14;99632.19;;;4.71;100.00
63903;BME280;50072;50.678;13.938;2023-04-21T04:58:40;99636.63;;;4.74;100.00
63903;BME280;50072;50.678;13.938;2023-04-21T05:01:15;99645.44;;;4.85;100.00
63903;BME280;50072;50.678;13.938;2023-04-21T05:03:45;99642.75;;;4.91;100.00
63903;BME280;50072;50.678;13.938;2023-04-21T05:06:12;99649.81;;;5.05;100.00
63903;BME280;50072;50.678;13.938;2023-04-21T05:08:45;99648.00;;;5.10;100.00
63903;BME280;50072;50.678;13.938;2023-04-21T05:11:15;99648.84;;;5.21;100.00
63903;BME280;50072;50.678;13.938;2023-04-21T05:13:41;99647.94;;;5.28;100.00
63903;BME280;50072;50.678;13.938;2023-04-21T05:16:15;99654.09;;;5.38;100.00
63903;BME280;50072;50.678;13.938;2023-04-21T05:18:48;99647.84;;;5.50;100.00
63903;BME280;50072;50.678;13.938;2023-04-21T05:21:22;99650.44;;;5.64;100.00
63903;BME280;50072;50.678;13.938;2023-04-21T05:23:48;99657.44;;;5.76;100.00
63903;BME280;50072;50.678;13.938;2023-04-21T05:26:16;99655.59;;;5.87;100.00
63903;BME280;50072;50.678;13.938;2023-04-21T05:28:42;99665.31;;;6.00;100.00
63903;BME280;50072;50.678;13.938;2023-04-21T05:31:09;99654.63;;;6.08;100.00
63903;BME280;50072;50.678;13.938;2023-04-21T05:33:36;99658.09;;;6.18;100.00
63903;BME280;50072;50.678;13.938;2023-04-21T05:36:08;99659.81;;;6.27;99.84
63903;BME280;50072;50.678;13.938;2023-04-21T05:38:35;99652.66;;;6.36;99.39
63903;BME280;50072;50.678;13.938;2023-04-21T05:41:04;99653.47;;;6.45;99.44
63903;BME280;50072;50.678;13.938;2023-04-21T05:43:34;99658.69;;;6.57;100.00
63903;BME280;50072;50.678;13.938;2023-04-21T05:46:02;99651.53;;;6.62;98.58
63903;BME280;50072;50.678;13.938;2023-04-21T05:48:29;99649.66;;;6.73;98.64
63903;BME280;50072;50.678;13.938;2023-04-21T05:51:10;99647.72;;;6.88;97.79
63903;BME280;50072;50.678;13.938;2023-04-21T05:53:38;99654.75;;;6.95;97.21
63903;BME280;50072;50.678;13.938;2023-04-21T05:56:07;99654.59;;;7.11;96.97
63903;BME280;50072;50.678;13.938;2023-04-21T05:58:36;99660.66;;;7.23;96.42
63903;BME280;50072;50.678;13.938;2023-04-21T06:01:03;99654.38;;;7.29;95.63
63903;BME280;50072;50.678;13.938;2023-04-21T06:03:35;99643.59;;;7.40;95.73
63903;BME280;50072;50.678;13.938;2023-04-21T06:06:03;99644.34;;;7.51;95.21
63903;BME280;50072;50.678;13.938;2023-04-21T06:08:30;99636.19;;;7.64;95.22
63903;BME280;50072;50.678;13.938;2023-04-21T06:10:58;99638.59;;;7.81;95.24
63903;BME280;50072;50.678;13.938;2023-04-21T06:13:23;99646.44;;;7.93;94.31
63903;BME280;50072;50.678;13.938;2023-04-21T06:15:53;99639.09;;;8.07;94.43
63903;BME280;50072;50.678;13.938;2023-04-21T06:18:19;99643.34;;;8.19;93.85
63903;BME280;50072;50.678;13.938;2023-04-21T06:20:54;99640.44;;;8.35;93.17
63903;BME280;50072;50.678;13.938;2023-04-21T06:23:22;99643.81;;;8.48;93.09
63903;BME280;50072;50.678;13.938;2023-04-21T06:26:05;99641.78;;;8.65;93.28
63903;BME280;50072;50.678;13.938;2023-04-21T06:28:34;99638.78;;;8.80;92.88
63903;BME280;50072;50.678;13.938;2023-04-21T06:31:02;99637.69;;;8.94;92.18
63903;BME280;50072;50.678;13.938;2023-04-21T06:33:30;99637.38;;;9.09;91.44
63903;BME280;50072;50.678;13.938;2023-04-21T06:35:58;99629.16;;;9.20;90.87
63903;BME280;50072;50.678;13.938;2023-04-21T06:38:24;99638.72;;;9.32;89.90
63903;BME280;50072;50.678;13.938;2023-04-21T06:40:52;99636.69;;;9.45;89.00
63903;BME280;50072;50.678;13.938;2023-04-21T06:43:19;99638.13;;;9.60;88.63
63903;BME280;50072;50.678;13.938;2023-04-21T06:45:45;99635.06;;;9.78;87.81
63903;BME280;50072;50.678;13.938;2023-04-21T06:48:11;99632.03;;;9.94;86.78
63903;BME280;50072;50.678;13.938;2023-04-21T06:50:39;99634.19;;;10.15;85.10
63903;BME280;50072;50.678;13.938;2023-04-21T06:53:09;99639.13;;;10.34;83.79
63903;BME280;50072;50.678;13.938;2023-04-21T06:55:41;99640.47;;;10.52;84.99
63903;BME280;50072;50.678;13.938;2023-04-21T06:58:13;99640.78;;;10.74;83.63
63903;BME280;50072;50.678;13.938;2023-04-21T07:00:46;99640.88;;;11.04;79.29
63903;BME280;50072;50.678;13.938;2023-04-21T07:03:17;99643.91;;;11.25;76.21
63903;BME280;50072;50.678;13.938;2023-04-21T07:05:45;99637.06;;;11.44;73.33
63903;BME280;50072;50.678;13.938;2023-04-21T07:08:15;99636.47;;;11.66;70.16
63903;BME280;50072;50.678;13.938;2023-04-21T07:10:47;99639.34;;;11.88;71.61
63903;BME280;50072;50.678;13.938;2023-04-21T07:13:13;99634.94;;;12.15;71.53
63903;BME280;50072;50.678;13.938;2023-04-21T07:15:40;99639.72;;;12.34;65.87
63903;BME280;50072;50.678;13.938;2023-04-21T07:18:07;99637.16;;;12.57;66.98
63903;BME280;50072;50.678;13.938;2023-04-21T07:20:33;99635.56;;;12.78;66.47
63903;BME280;50072;50.678;13.938;2023-04-21T07:23:01;99637.59;;;12.97;67.63
63903;BME280;50072;50.678;13.938;2023-04-21T07:25:35;99635.16;;;13.15;67.61
63903;BME280;50072;50.678;13.938;2023-04-21T07:28:01;99638.91;;;13.36;63.37
63903;BME280;50072;50.678;13.938;2023-04-21T07:30:30;99633.66;;;13.56;63.48
63903;BME280;50072;50.678;13.938;2023-04-21T07:32:56;99643.50;;;13.81;61.51
63903;BME280;50072;50.678;13.938;2023-04-21T07:35:23;99634.00;;;13.94;59.87
63903;BME280;50072;50.678;13.938;2023-04-21T07:37:49;99636.06;;;14.10;58.10
63903;BME280;50072;50.678;13.938;2023-04-21T07:40:15;99633.63;;;14.26;57.36
63903;BME280;50072;50.678;13.938;2023-04-21T07:42:42;99620.19;;;14.48;57.83
63903;BME280;50072;50.678;13.938;2023-04-21T07:45:08;99627.63;;;14.63;55.04
63903;BME280;50072;50.678;13.938;2023-04-21T07:47:35;99625.41;;;14.73;54.94
63903;BME280;50072;50.678;13.938;2023-04-21T07:50:01;99621.91;;;14.92;56.18
63903;BME280;50072;50.678;13.938;2023-04-21T07:52:27;99615.84;;;15.07;55.15
63903;BME280;50072;50.678;13.938;2023-04-21T07:54:53;99619.34;;;15.30;54.50
63903;BME280;50072;50.678;13.938;2023-04-21T07:57:19;99620.44;;;15.45;51.00
63903;BME280;50072;50.678;13.938;2023-04-21T07:59:45;99612.69;;;15.58;50.27
63903;BME280;50072;50.678;13.938;2023-04-21T08:02:10;99608.53;;;15.69;50.93
63903;BME280;50072;50.678;13.938;2023-04-21T08:04:36;99606.88;;;15.86;49.71
63903;BME280;50072;50.678;13.938;2023-04-21T08:07:02;99603.75;;;15.95;48.46
63903;BME280;50072;50.678;13.938;2023-04-21T08:09:28;99595.53;;;16.16;50.68
63903;BME280;50072;50.678;13.938;2023-04-21T08:11:53;99595.81;;;16.29;47.65
63903;BME280;50072;50.678;13.938;2023-04-21T08:14:20;99597.50;;;16.49;46.88
63903;BME280;50072;50.678;13.938;2023-04-21T08:16:45;99599.66;;;16.60;48.72
63903;BME280;50072;50.678;13.938;2023-04-21T08:19:11;99589.25;;;16.69;46.56
63903;BME280;50072;50.678;13.938;2023-04-21T08:21:38;99592.84;;;16.87;46.53
63903;BME280;50072;50.678;13.938;2023-04-21T08:24:04;99596.88;;;17.14;45.35
63903;BME280;50072;50.678;13.938;2023-04-21T08:26:30;99591.44;;;17.31;46.32
63903;BME280;50072;50.678;13.938;2023-04-21T08:28:59;99592.38;;;17.48;45.07
63903;BME280;50072;50.678;13.938;2023-04-21T08:31:25;99594.25;;;17.46;44.48
63903;BME280;50072;50.678;13.938;2023-04-21T08:33:52;99595.34;;;17.59;45.16
63903;BME280;50072;50.678;13.938;2023-04-21T08:36:18;99587.72;;;17.50;44.37
63903;BME280;50072;50.678;13.938;2023-04-21T08:38:45;99598.50;;;17.67;44.65
63903;BME280;50072;50.678;13.938;2023-04-21T08:41:12;99581.91;;;17.73;44.26
63903;BME280;50072;50.678;13.938;2023-04-21T08:43:38;99585.03;;;17.99;44.11
63903;BME280;50072;50.678;13.938;2023-04-21T08:46:06;99586.03;;;18.13;43.87
63903;BME280;50072;50.678;13.938;2023-04-21T08:48:36;99584.16;;;18.15;42.88
63903;BME280;50072;50.678;13.938;2023-04-21T08:51:05;99590.75;;;18.25;42.30
63903;BME280;50072;50.678;13.938;2023-04-21T08:53:31;99586.25;;;18.56;42.14
63903;BME280;50072;50.678;13.938;2023-04-21T08:55:57;99586.97;;;18.90;42.89
63903;BME280;50072;50.678;13.938;2023-04-21T08:58:22;99585.56;;;19.13;41.70
63903;BME280;50072;50.678;13.938;2023-04-21T09:00:49;99585.25;;;19.18;42.42
63903;BME280;50072;50.678;13.938;2023-04-21T09:03:22;99578.88;;;19.19;41.75
63903;BME280;50072;50.678;13.938;2023-04-21T09:06:01;99582.47;;;19.62;42.52
63903;BME280;50072;50.678;13.938;2023-04-21T09:08:28;99586.75;;;19.81;39.42
63903;BME280;50072;50.678;13.938;2023-04-21T09:10:55;99580.97;;;20.00;39.21
63903;BME280;50072;50.678;13.938;2023-04-21T09:13:29;99576.81;;;19.94;39.11
63903;BME280;50072;50.678;13.938;2023-04-21T09:15:55;99569.66;;;20.21;40.04
63903;BME280;50072;50.678;13.938;2023-04-21T09:18:23;99571.16;;;20.52;38.54
63903;BME280;50072;50.678;13.938;2023-04-21T09:23:45;99574.91;;;21.04;37.81
63903;BME280;50072;50.678;13.938;2023-04-21T09:26:20;99568.47;;;20.79;37.19
63903;BME280;50072;50.678;13.938;2023-04-21T09:28:49;99565.63;;;20.68;37.75
63903;BME280;50072;50.678;13.938;2023-04-21T09:33:47;99568.16;;;21.35;37.39
63903;BME280;50072;50.678;13.938;2023-04-21T09:36:23;99567.41;;;21.59;37.24
63903;BME280;50072;50.678;13.938;2023-04-21T09:41:19;99568.97;;;21.87;36.69
63903;BME280;50072;50.678;13.938;2023-04-21T09:43:46;99557.81;;;22.28;37.01
63903;BME280;50072;50.678;13.938;2023-04-21T09:46:15;99557.56;;;22.79;34.77
63903;BME280;50072;50.678;13.938;2023-04-21T09:48:46;99556.22;;;23.20;33.95
63903;BME280;50072;50.678;13.938;2023-04-21T09:51:14;99547.44;;;23.04;34.28
63903;BME280;50072;50.678;13.938;2023-04-21T09:53:47;99550.53;;;22.88;33.38
63903;BME280;50072;50.678;13.938;2023-04-21T09:56:24;99556.22;;;22.85;34.24
63903;BME280;50072;50.678;13.938;2023-04-21T09:59:00;99554.84;;;23.26;34.14
63903;BME280;50072;50.678;13.938;2023-04-21T10:01:32;99553.28;;;23.10;34.73
63903;BME280;50072;50.678;13.938;2023-04-21T10:04:00;99546.16;;;23.66;34.23
63903;BME280;50072;50.678;13.938;2023-04-21T10:06:27;99537.00;;;24.22;31.97
63903;BME280;50072;50.678;13.938;2023-04-21T10:08:53;99540.06;;;24.73;31.49
63903;BME280;50072;50.678;13.938;2023-04-21T10:11:22;99538.97;;;25.27;28.97
63903;BME280;50072;50.678;13.938;2023-04-21T10:13:49;99544.66;;;25.14;28.45
63903;BME280;50072;50.678;13.938;2023-04-21T10:16:16;99545.59;;;25.04;28.94
63903;BME280;50072;50.678;13.938;2023-04-21T10:18:44;99538.81;;;25.50;28.85
63903;BME280;50072;50.678;13.938;2023-04-21T10:21:19;99539.44;;;25.63;28.01
63903;BME280;50072;50.678;13.938;2023-04-21T10:23:47;99538.75;;;25.81;28.02
63903;BME280;50072;50.678;13.938;2023-04-21T10:26:32;99538.28;;;25.66;28.41
63903;BME280;50072;50.678;13.938;2023-04-21T10:29:05;99530.03;;;24.83;28.96
63903;BME280;50072;50.678;13.938;2023-04-21T10:31:36;99542.81;;;25.46;28.86
63903;BME280;50072;50.678;13.938;2023-04-21T10:39:30;99524.78;;;25.22;28.33
63903;BME280;50072;50.678;13.938;2023-04-21T10:42:18;99525.19;;;26.20;28.83
63903;BME280;50072;50.678;13.938;2023-04-21T10:45:03;99528.56;;;25.31;27.92
63903;BME280;50072;50.678;13.938;2023-04-21T10:47:47;99519.19;;;25.24;27.47
63903;BME280;50072;50.678;13.938;2023-04-21T10:50:36;99515.06;;;26.30;26.62
63903;BME280;50072;50.678;13.938;2023-04-21T10:53:15;99525.81;;;28.23;24.93
63903;BME280;50072;50.678;13.938;2023-04-21T10:55:47;99520.16;;;28.79;24.23
63903;BME280;50072;50.678;13.938;2023-04-21T10:58:14;99519.47;;;28.77;24.48
63903;BME280;50072;50.678;13.938;2023-04-21T11:00:41;99517.50;;;30.25;23.44
63903;BME280;50072;50.678;13.938;2023-04-21T11:03:07;99504.47;;;30.93;21.58
63903;BME280;50072;50.678;13.938;2023-04-21T11:05:39;99501.41;;;32.00;20.97
63903;BME280;50072;50.678;13.938;2023-04-21T11:10:54;99516.13;;;30.21;21.62
63903;BME280;50072;50.678;13.938;2023-04-21T11:13:24;99496.75;;;27.93;23.64
63903;BME280;50072;50.678;13.938;2023-04-21T11:16:02;99508.00;;;29.34;23.20
63903;BME280;50072;50.678;13.938;2023-04-21T11:18:45;99495.03;;;31.52;21.47
63903;BME280;50072;50.678;13.938;2023-04-21T11:21:17;99491.66;;;30.26;22.71
63903;BME280;50072;50.678;13.938;2023-04-21T11:24:01;99498.91;;;27.99;24.34
63903;BME280;50072;50.678;13.938;2023-04-21T11:26:42;99489.34;;;26.90;24.63
63903;BME280;50072;50.678;13.938;2023-04-21T11:29:15;99494.53;;;25.24;27.32
63903;BME280;50072;50.678;13.938;2023-04-21T11:31:45;99497.06;;;24.63;27.56
63903;BME280;50072;50.678;13.938;2023-04-21T11:34:18;99490.13;;;23.72;28.29
63903;BME280;50072;50.678;13.938;2023-04-21T11:36:44;99481.31;;;22.89;29.41
63903;BME280;50072;50.678;13.938;2023-04-21T11:39:12;99500.69;;;22.50;29.96
63903;BME280;50072;50.678;13.938;2023-04-21T11:41:41;99491.06;;;21.85;31.73
63903;BME280;50072;50.678;13.938;2023-04-21T11:44:07;99488.97;;;21.51;32.31
63903;BME280;50072;50.678;13.938;2023-04-21T11:46:33;99481.00;;;23.27;31.33
63903;BME280;50072;50.678;13.938;2023-04-21T11:51:25;99482.03;;;24.25;27.60
63903;BME280;50072;50.678;13.938;2023-04-21T11:53:51;99481.44;;;23.55;29.26
63903;BME280;50072;50.678;13.938;2023-04-21T11:56:17;99493.84;;;23.03;29.42
63903;BME280;50072;50.678;13.938;2023-04-21T11:58:44;99487.34;;;26.24;26.71
63903;BME280;50072;50.678;13.938;2023-04-21T12:01:10;99478.47;;;24.88;27.76
63903;BME280;50072;50.678;13.938;2023-04-21T12:03:39;99493.06;;;24.35;29.16
63903;BME280;50072;50.678;13.938;2023-04-21T12:06:05;99482.03;;;23.93;30.07
63903;BME280;50072;50.678;13.938;2023-04-21T12:08:31;99489.94;;;26.45;26.54
63903;BME280;50072;50.678;13.938;2023-04-21T12:10:58;99481.06;;;25.11;27.30
63903;BME280;50072;50.678;13.938;2023-04-21T12:13:27;99480.69;;;26.26;26.78
63903;BME280;50072;50.678;13.938;2023-04-21T12:15:54;99479.03;;;24.82;27.72
63903;BME280;50072;50.678;13.938;2023-04-21T12:18:19;99476.09;;;24.20;28.69
63903;BME280;50072;50.678;13.938;2023-04-21T12:20:49;99482.69;;;23.51;30.04
63903;BME280;50072;50.678;13.938;2023-04-21T12:23:15;99479.97;;;22.95;30.86
63903;BME280;50072;50.678;13.938;2023-04-21T12:25:41;99480.72;;;26.07;26.17
63903;BME280;50072;50.678;13.938;2023-04-21T12:28:07;99481.13;;;30.95;21.34
63903;BME280;50072;50.678;13.938;2023-04-21T12:30:33;99476.97;;;30.17;20.61
63903;BME280;50072;50.678;13.938;2023-04-21T12:32:59;99468.97;;;28.68;22.45
63903;BME280;50072;50.678;13.938;2023-04-21T12:35:25;99472.19;;;26.68;23.30
63903;BME280;50072;50.678;13.938;2023-04-21T12:37:51;99468.59;;;26.39;24.06
63903;BME280;50072;50.678;13.938;2023-04-21T12:40:17;99465.69;;;29.94;21.46
63903;BME280;50072;50.678;13.938;2023-04-21T12:42:42;99463.41;;;29.12;20.90
63903;BME280;50072;50.678;13.938;2023-04-21T12:45:08;99457.75;;;27.24;22.98
63903;BME280;50072;50.678;13.938;2023-04-21T12:47:34;99460.44;;;30.83;20.74
63903;BME280;50072;50.678;13.938;2023-04-21T12:50:01;99464.72;;;30.94;20.20
63903;BME280;50072;50.678;13.938;2023-04-21T12:52:26;99451.19;;;28.26;21.66
63903;BME280;50072;50.678;13.938;2023-04-21T12:54:52;99453.50;;;26.92;23.56
63903;BME280;50072;50.678;13.938;2023-04-21T12:57:19;99451.06;;;27.82;23.06
63903;BME280;50072;50.678;13.938;2023-04-21T12:59:45;99449.75;;;29.02;21.85
63903;BME280;50072;50.678;13.938;2023-04-21T13:02:11;99447.47;;;26.78;24.70
63903;BME280;50072;50.678;13.938;2023-04-21T13:04:37;99451.59;;;25.75;25.14
63903;BME280;50072;50.678;13.938;2023-04-21T13:07:06;99447.91;;;24.41;26.65
63903;BME280;50072;50.678;13.938;2023-04-21T13:09:32;99449.72;;;25.65;25.45
63903;BME280;50072;50.678;13.938;2023-04-21T13:11:57;99435.53;;;30.01;21.25
63903;BME280;50072;50.678;13.938;2023-04-21T13:14:23;99427.00;;;32.28;18.50
63903;BME280;50072;50.678;13.938;2023-04-21T13:16:49;99431.63;;;33.42;16.87
63903;BME280;50072;50.678;13.938;2023-04-21T13:19:15;99434.84;;;34.34;16.72
63903;BME280;50072;50.678;13.938;2023-04-21T13:21:40;99424.84;;;34.39;15.68
63903;BME280;50072;50.678;13.938;2023-04-21T13:24:06;99425.56;;;36.84;15.17